sensor_id;sensor_type;location;lat;lon;timestamp;temperature;humidity
2010;DHT22;1008;47.404;8.502;2023-07-13T00:00:25;20.50;1.00
2010;DHT22;1008;47.404;8.502;2023-07-13T00:02:52;20.60;1.00
2010;DHT22;1008;47.404;8.502;2023-07-13T00:05:19;20.50;1.00
2010;DHT22;1008;47.404;8.502;2023-07-13T00:07:46;20.60;1.00
2010;DHT22;1008;47.404;8.502;2023-07-13T00:10:14;20.60;1.00
2010;DHT22;1008;47.404;8.502;2023-07-13T00:12:41;20.70;1.00
2010;DHT22;1008;47.404;8.502;2023-07-13T00:15:14;20.70;1.00
2010;DHT22;1008;47.404;8.502;2023-07-13T00:17:43;20.50;1.00
2010;DHT22;1008;47.404;8.502;2023-07-13T00:20:11;20.50;1.00
2010;DHT22;1008;47.404;8.502;2023-07-13T00:22:38;20.50;1.00
2010;DHT22;1008;47.404;8.502;2023-07-13T00:25:06;20.60;1.00
2010;DHT22;1008;47.404;8.502;2023-07-13T00:27:32;20.40;1.00
2010;DHT22;1008;47.404;8.502;2023-07-13T00:29:59;20.20;1.00
2010;DHT22;1008;47.404;8.502;2023-07-13T00:32:26;19.90;1.00
2010;DHT22;1008;47.404;8.502;2023-07-13T00:34:54;19.80;1.00
2010;DHT22;1008;47.404;8.502;2023-07-13T00:37:20;19.60;1.00
2010;DHT22;1008;47.404;8.502;2023-07-13T00:39:49;19.70;1.00
2010;DHT22;1008;47.404;8.502;2023-07-13T00:42:15;19.60;1.00
2010;DHT22;1008;47.404;8.502;2023-07-13T00:45:04;19.70;1.00
2010;DHT22;1008;47.404;8.502;2023-07-13T00:47:31;19.80;1.00
2010;DHT22;1008;47.404;8.502;2023-07-13T00:49:59;19.60;1.00
2010;DHT22;1008;47.404;8.502;2023-07-13T00:52:26;19.60;1.00
2010;DHT22;1008;47.404;8.502;2023-07-13T00:54:54;19.70;1.00
2010;DHT22;1008;47.404;8.502;2023-07-13T00:57:22;19.60;1.00
2010;DHT22;1008;47.404;8.502;2023-07-13T00:59:53;19.70;1.00
2010;DHT22;1008;47.404;8.502;2023-07-13T01:02:21;19.70;1.00
2010;DHT22;1008;47.404;8.502;2023-07-13T01:04:48;19.80;1.00
2010;DHT22;1008;47.404;8.502;2023-07-13T01:07:16;20.00;1.00
2010;DHT22;1008;47.404;8.502;2023-07-13T01:09:44;20.10;1.00
2010;DHT22;1008;47.404;8.502;2023-07-13T01:12:11;20.10;1.00
2010;DHT22;1008;47.404;8.502;2023-07-13T01:14:39;20.00;1.00
2010;DHT22;1008;47.404;8.502;2023-07-13T01:17:07;20.20;1.00
2010;DHT22;1008;47.404;8.502;2023-07-13T01:19:37;19.90;1.00
2010;DHT22;1008;47.404;8.502;2023-07-13T01:22:07;20.00;1.00
2010;DHT22;1008;47.404;8.502;2023-07-13T01:24:37;20.30;1.00
2010;DHT22;1008;47.404;8.502;2023-07-13T01:27:06;20.30;1.00
2010;DHT22;1008;47.404;8.502;2023-07-13T01:29:35;20.40;1.00
2010;DHT22;1008;47.404;8.502;2023-07-13T01:32:08;20.40;1.00
2010;DHT22;1008;47.404;8.502;2023-07-13T01:34:35;20.40;1.00
2010;DHT22;1008;47.404;8.502;2023-07-13T01:37:02;20.40;1.00
2010;DHT22;1008;47.404;8.502;2023-07-13T01:39:31;20.50;1.00
2010;DHT22;1008;47.404;8.502;2023-07-13T01:41:58;20.50;1.00
2010;DHT22;1008;47.404;8.502;2023-07-13T01:44:25;20.60;1.00
2010;DHT22;1008;47.404;8.502;2023-07-13T01:46:52;20.40;1.00
2010;DHT22;1008;47.404;8.502;2023-07-13T01:49:19;20.30;1.00
2010;DHT22;1008;47.404;8.502;2023-07-13T01:51:45;20.20;1.00
2010;DHT22;1008;47.404;8.502;2023-07-13T01:54:12;20.30;1.00
2010;DHT22;1008;47.404;8.502;2023-07-13T01:56:40;20.40;1.00
2010;DHT22;1008;47.404;8.502;2023-07-13T01:59:07;20.10;1.00
2010;DHT22;1008;47.404;8.502;2023-07-13T02:01:34;20.10;1.00
2010;DHT22;1008;47.404;8.502;2023-07-13T02:04:01;20.00;13.30
2010;DHT22;1008;47.404;8.502;2023-07-13T02:06:27;20.00;26.10
2010;DHT22;1008;47.404;8.502;2023-07-13T02:08:54;20.10;28.90
2010;DHT22;1008;47.404;8.502;2023-07-13T02:11:21;20.10;40.10
2010;DHT22;1008;47.404;8.502;2023-07-13T02:13:49;20.10;43.10
2010;DHT22;1008;47.404;8.502;2023-07-13T02:16:16;19.90;26.40
2010;DHT22;1008;47.404;8.502;2023-07-13T02:18:43;20.00;10.20
2010;DHT22;1008;47.404;8.502;2023-07-13T02:21:09;20.00;13.20
2010;DHT22;1008;47.404;8.502;2023-07-13T02:23:36;19.70;67.70
2010;DHT22;1008;47.404;8.502;2023-07-13T02:26:04;19.60;99.90
2010;DHT22;1008;47.404;8.502;2023-07-13T02:28:31;19.70;99.90
2010;DHT22;1008;47.404;8.502;2023-07-13T02:31:06;19.80;82.20
2010;DHT22;1008;47.404;8.502;2023-07-13T02:33:33;19.90;1.00
2010;DHT22;1008;47.404;8.502;2023-07-13T02:35:59;19.90;8.90
2010;DHT22;1008;47.404;8.502;2023-07-13T02:38:26;20.00;12.80
2010;DHT22;1008;47.404;8.502;2023-07-13T02:40:53;20.00;1.00
2010;DHT22;1008;47.404;8.502;2023-07-13T02:43:20;20.00;1.00
2010;DHT22;1008;47.404;8.502;2023-07-13T02:45:46;19.90;1.00
2010;DHT22;1008;47.404;8.502;2023-07-13T02:48:14;19.90;1.00
2010;DHT22;1008;47.404;8.502;2023-07-13T02:50:41;20.00;1.00
2010;DHT22;1008;47.404;8.502;2023-07-13T02:53:08;20.00;1.00
2010;DHT22;1008;47.404;8.502;2023-07-13T02:55:34;19.90;1.00
2010;DHT22;1008;47.404;8.502;2023-07-13T02:58:01;19.80;1.00
2010;DHT22;1008;47.404;8.502;2023-07-13T03:00:28;19.90;1.00
2010;DHT22;1008;47.404;8.502;2023-07-13T03:02:56;19.70;1.00
2010;DHT22;1008;47.404;8.502;2023-07-13T03:05:25;19.60;1.00
2010;DHT22;1008;47.404;8.502;2023-07-13T03:07:51;19.40;1.00
2010;DHT22;1008;47.404;8.502;2023-07-13T03:10:18;19.50;15.20
2010;DHT22;1008;47.404;8.502;2023-07-13T03:12:45;19.40;33.50
2010;DHT22;1008;47.404;8.502;2023-07-13T03:15:12;19.30;55.20
2010;DHT22;1008;47.404;8.502;2023-07-13T03:17:38;19.30;60.90
2010;DHT22;1008;47.404;8.502;2023-07-13T03:20:07;19.40;80.80
2010;DHT22;1008;47.404;8.502;2023-07-13T03:22:36;19.40;52.00
2010;DHT22;1008;47.404;8.502;2023-07-13T03:25:03;19.40;49.80
2010;DHT22;1008;47.404;8.502;2023-07-13T03:27:29;19.40;79.40
2010;DHT22;1008;47.404;8.502;2023-07-13T03:29:56;19.30;99.90
2010;DHT22;1008;47.404;8.502;2023-07-13T03:32:23;19.40;99.90
2010;DHT22;1008;47.404;8.502;2023-07-13T03:34:50;19.30;99.90
2010;DHT22;1008;47.404;8.502;2023-07-13T03:37:16;19.30;99.90
2010;DHT22;1008;47.404;8.502;2023-07-13T03:39:44;19.20;99.90
2010;DHT22;1008;47.404;8.502;2023-07-13T03:42:12;19.10;99.90
2010;DHT22;1008;47.404;8.502;2023-07-13T03:44:39;19.10;99.90
2010;DHT22;1008;47.404;8.502;2023-07-13T03:47:06;18.90;99.90
2010;DHT22;1008;47.404;8.502;2023-07-13T03:49:34;18.90;99.90
2010;DHT22;1008;47.404;8.502;2023-07-13T03:52:01;18.90;99.90
2010;DHT22;1008;47.404;8.502;2023-07-13T03:54:28;19.00;68.60
2010;DHT22;1008;47.404;8.502;2023-07-13T03:56:56;19.10;89.30
2010;DHT22;1008;47.404;8.502;2023-07-13T03:59:22;19.30;45.20
2010;DHT22;1008;47.404;8.502;2023-07-13T04:01:49;19.30;25.30
2010;DHT22;1008;47.404;8.502;2023-07-13T04:04:16;19.40;32.30
2010;DHT22;1008;47.404;8.502;2023-07-13T04:06:42;19.40;33.40
2010;DHT22;1008;47.404;8.502;2023-07-13T04:09:09;19.30;51.90
2010;DHT22;1008;47.404;8.502;2023-07-13T04:11:36;19.30;35.90
2010;DHT22;1008;47.404;8.502;2023-07-13T04:14:04;19.40;85.30
2010;DHT22;1008;47.404;8.502;2023-07-13T04:16:31;19.60;52.30
2010;DHT22;1008;47.404;8.502;2023-07-13T04:18:58;19.60;1.00
2010;DHT22;1008;47.404;8.502;2023-07-13T04:21:26;19.60;1.00
2010;DHT22;1008;47.404;8.502;2023-07-13T04:23:52;19.60;1.00
2010;DHT22;1008;47.404;8.502;2023-07-13T04:26:19;19.50;1.00
2010;DHT22;1008;47.404;8.502;2023-07-13T04:28:48;19.50;1.00
2010;DHT22;1008;47.404;8.502;2023-07-13T04:31:16;19.50;5.80
2010;DHT22;1008;47.404;8.502;2023-07-13T04:33:43;19.60;1.00
2010;DHT22;1008;47.404;8.502;2023-07-13T04:36:11;19.60;1.00
2010;DHT22;1008;47.404;8.502;2023-07-13T04:38:38;19.90;6.60
2010;DHT22;1008;47.404;8.502;2023-07-13T04:41:06;20.30;1.00
2010;DHT22;1008;47.404;8.502;2023-07-13T04:43:33;20.20;1.00
2010;DHT22;1008;47.404;8.502;2023-07-13T04:46:03;20.00;1.00
2010;DHT22;1008;47.404;8.502;2023-07-13T04:48:32;19.90;1.00
2010;DHT22;1008;47.404;8.502;2023-07-13T04:50:59;20.00;1.00
2010;DHT22;1008;47.404;8.502;2023-07-13T04:53:27;19.90;1.00
2010;DHT22;1008;47.404;8.502;2023-07-13T04:55:54;20.30;1.00
2010;DHT22;1008;47.404;8.502;2023-07-13T04:58:21;20.20;1.00
2010;DHT22;1008;47.404;8.502;2023-07-13T05:00:48;20.40;1.00
2010;DHT22;1008;47.404;8.502;2023-07-13T05:03:14;20.50;1.00
2010;DHT22;1008;47.404;8.502;2023-07-13T05:05:43;20.30;1.00
2010;DHT22;1008;47.404;8.502;2023-07-13T05:08:09;20.10;1.00
2010;DHT22;1008;47.404;8.502;2023-07-13T05:10:36;20.00;1.00
2010;DHT22;1008;47.404;8.502;2023-07-13T05:13:03;19.90;1.00
2010;DHT22;1008;47.404;8.502;2023-07-13T05:15:29;20.20;1.00
2010;DHT22;1008;47.404;8.502;2023-07-13T05:17:56;20.10;1.00
2010;DHT22;1008;47.404;8.502;2023-07-13T05:20:23;19.90;1.00
2010;DHT22;1008;47.404;8.502;2023-07-13T05:22:51;19.90;1.00
2010;DHT22;1008;47.404;8.502;2023-07-13T05:25:18;19.80;1.00
2010;DHT22;1008;47.404;8.502;2023-07-13T05:27:44;19.80;1.00
2010;DHT22;1008;47.404;8.502;2023-07-13T05:30:13;19.80;1.00
2010;DHT22;1008;47.404;8.502;2023-07-13T05:32:39;20.10;1.00
2010;DHT22;1008;47.404;8.502;2023-07-13T05:35:07;20.00;1.00
2010;DHT22;1008;47.404;8.502;2023-07-13T05:37:34;19.90;1.00
2010;DHT22;1008;47.404;8.502;2023-07-13T05:40:03;19.80;1.00
2010;DHT22;1008;47.404;8.502;2023-07-13T05:42:30;19.60;1.00
2010;DHT22;1008;47.404;8.502;2023-07-13T05:44:57;19.60;1.00
2010;DHT22;1008;47.404;8.502;2023-07-13T05:47:27;19.70;1.00
2010;DHT22;1008;47.404;8.502;2023-07-13T05:49:54;19.70;1.00
2010;DHT22;1008;47.404;8.502;2023-07-13T05:52:20;19.70;1.00
2010;DHT22;1008;47.404;8.502;2023-07-13T05:54:47;19.60;1.00
2010;DHT22;1008;47.404;8.502;2023-07-13T05:57:15;19.40;1.00
2010;DHT22;1008;47.404;8.502;2023-07-13T05:59:42;19.40;1.00
2010;DHT22;1008;47.404;8.502;2023-07-13T06:02:09;19.30;7.20
2010;DHT22;1008;47.404;8.502;2023-07-13T06:04:35;19.30;7.50
2010;DHT22;1008;47.404;8.502;2023-07-13T06:07:02;19.30;16.10
2010;DHT22;1008;47.404;8.502;2023-07-13T06:09:29;19.30;8.70
2010;DHT22;1008;47.404;8.502;2023-07-13T06:11:56;19.30;12.00
2010;DHT22;1008;47.404;8.502;2023-07-13T06:14:24;19.30;7.50
2010;DHT22;1008;47.404;8.502;2023-07-13T06:16:51;19.20;1.00
2010;DHT22;1008;47.404;8.502;2023-07-13T06:19:18;19.20;1.00
2010;DHT22;1008;47.404;8.502;2023-07-13T06:21:44;19.10;1.00
2010;DHT22;1008;47.404;8.502;2023-07-13T06:24:11;19.20;1.00
2010;DHT22;1008;47.404;8.502;2023-07-13T06:26:38;19.30;1.00
2010;DHT22;1008;47.404;8.502;2023-07-13T06:29:04;19.10;1.00
2010;DHT22;1008;47.404;8.502;2023-07-13T06:31:33;19.00;1.00
2010;DHT22;1008;47.404;8.502;2023-07-13T06:33:59;18.90;1.00
2010;DHT22;1008;47.404;8.502;2023-07-13T06:36:26;19.00;1.00
2010;DHT22;1008;47.404;8.502;2023-07-13T06:38:53;18.90;1.00
2010;DHT22;1008;47.404;8.502;2023-07-13T06:41:20;19.30;1.00
2010;DHT22;1008;47.404;8.502;2023-07-13T06:43:47;19.20;1.00
2010;DHT22;1008;47.404;8.502;2023-07-13T06:46:14;19.30;1.00
2010;DHT22;1008;47.404;8.502;2023-07-13T06:48:42;19.50;1.00
2010;DHT22;1008;47.404;8.502;2023-07-13T06:51:09;19.50;1.00
2010;DHT22;1008;47.404;8.502;2023-07-13T06:53:35;19.60;99.90
2010;DHT22;1008;47.404;8.502;2023-07-13T06:56:02;19.60;1.00
2010;DHT22;1008;47.404;8.502;2023-07-13T06:58:29;19.40;1.00
2010;DHT22;1008;47.404;8.502;2023-07-13T07:00:56;19.40;99.90
2010;DHT22;1008;47.404;8.502;2023-07-13T07:03:23;19.60;99.90
2010;DHT22;1008;47.404;8.502;2023-07-13T07:05:51;19.40;99.90
2010;DHT22;1008;47.404;8.502;2023-07-13T07:08:17;19.50;99.90
2010;DHT22;1008;47.404;8.502;2023-07-13T07:10:44;19.50;99.90
2010;DHT22;1008;47.404;8.502;2023-07-13T07:13:11;19.50;99.90
2010;DHT22;1008;47.404;8.502;2023-07-13T07:15:37;19.50;1.00
2010;DHT22;1008;47.404;8.502;2023-07-13T07:18:04;19.60;99.90
2010;DHT22;1008;47.404;8.502;2023-07-13T07:20:31;19.50;56.80
2010;DHT22;1008;47.404;8.502;2023-07-13T07:22:59;19.60;1.00
2010;DHT22;1008;47.404;8.502;2023-07-13T07:25:26;19.60;99.90
2010;DHT22;1008;47.404;8.502;2023-07-13T07:27:57;19.70;99.90
2010;DHT22;1008;47.404;8.502;2023-07-13T07:30:24;19.80;99.90
2010;DHT22;1008;47.404;8.502;2023-07-13T07:32:50;19.80;1.00
2010;DHT22;1008;47.404;8.502;2023-07-13T07:35:17;19.80;99.90
2010;DHT22;1008;47.404;8.502;2023-07-13T07:37:44;20.00;1.00
2010;DHT22;1008;47.404;8.502;2023-07-13T07:40:12;19.90;99.90
2010;DHT22;1008;47.404;8.502;2023-07-13T07:42:38;19.90;1.00
2010;DHT22;1008;47.404;8.502;2023-07-13T07:45:06;19.80;1.00
2010;DHT22;1008;47.404;8.502;2023-07-13T07:47:32;19.60;1.00
2010;DHT22;1008;47.404;8.502;2023-07-13T07:49:59;19.60;84.70
2010;DHT22;1008;47.404;8.502;2023-07-13T07:52:26;19.60;99.90
2010;DHT22;1008;47.404;8.502;2023-07-13T07:54:52;19.70;47.60
2010;DHT22;1008;47.404;8.502;2023-07-13T07:57:20;19.70;1.00
2010;DHT22;1008;47.404;8.502;2023-07-13T07:59:47;19.80;1.00
2010;DHT22;1008;47.404;8.502;2023-07-13T08:02:14;20.00;1.00
2010;DHT22;1008;47.404;8.502;2023-07-13T08:04:41;20.30;1.00
2010;DHT22;1008;47.404;8.502;2023-07-13T08:07:09;20.50;1.00
2010;DHT22;1008;47.404;8.502;2023-07-13T08:09:35;20.70;1.00
2010;DHT22;1008;47.404;8.502;2023-07-13T08:12:03;21.00;99.90
2010;DHT22;1008;47.404;8.502;2023-07-13T08:14:31;21.00;1.00
2010;DHT22;1008;47.404;8.502;2023-07-13T08:16:57;21.00;1.00
2010;DHT22;1008;47.404;8.502;2023-07-13T08:19:24;20.90;1.00
2010;DHT22;1008;47.404;8.502;2023-07-13T08:21:51;20.70;1.00
2010;DHT22;1008;47.404;8.502;2023-07-13T08:24:17;20.70;1.00
2010;DHT22;1008;47.404;8.502;2023-07-13T08:26:44;21.40;90.60
2010;DHT22;1008;47.404;8.502;2023-07-13T08:29:12;21.40;95.60
2010;DHT22;1008;47.404;8.502;2023-07-13T08:31:40;21.50;41.70
2010;DHT22;1008;47.404;8.502;2023-07-13T08:34:06;21.80;99.90
2010;DHT22;1008;47.404;8.502;2023-07-13T08:36:33;22.00;99.90
2010;DHT22;1008;47.404;8.502;2023-07-13T08:39:00;21.90;19.20
2010;DHT22;1008;47.404;8.502;2023-07-13T08:41:27;21.90;1.00
2010;DHT22;1008;47.404;8.502;2023-07-13T08:43:57;21.80;24.60
2010;DHT22;1008;47.404;8.502;2023-07-13T08:46:28;21.30;9.10
2010;DHT22;1008;47.404;8.502;2023-07-13T08:48:58;21.00;99.90
2010;DHT22;1008;47.404;8.502;2023-07-13T08:51:38;21.30;99.90
2010;DHT22;1008;47.404;8.502;2023-07-13T08:54:17;21.60;99.90
2010;DHT22;1008;47.404;8.502;2023-07-13T08:56:45;21.80;99.90
2010;DHT22;1008;47.404;8.502;2023-07-13T08:59:15;21.90;50.20
2010;DHT22;1008;47.404;8.502;2023-07-13T09:01:54;22.00;58.00
2010;DHT22;1008;47.404;8.502;2023-07-13T09:04:30;21.90;99.90
2010;DHT22;1008;47.404;8.502;2023-07-13T09:07:05;22.20;99.90
2010;DHT22;1008;47.404;8.502;2023-07-13T09:09:43;22.30;24.80
2010;DHT22;1008;47.404;8.502;2023-07-13T09:12:17;21.80;4.20
2010;DHT22;1008;47.404;8.502;2023-07-13T09:14:47;21.60;99.90
2010;DHT22;1008;47.404;8.502;2023-07-13T09:17:17;21.80;91.30
2010;DHT22;1008;47.404;8.502;2023-07-13T09:19:48;21.70;99.90
2010;DHT22;1008;47.404;8.502;2023-07-13T09:22:19;21.70;99.90
2010;DHT22;1008;47.404;8.502;2023-07-13T09:24:52;21.70;99.90
2010;DHT22;1008;47.404;8.502;2023-07-13T09:27:22;21.70;99.90
2010;DHT22;1008;47.404;8.502;2023-07-13T09:29:54;22.30;82.60
2010;DHT22;1008;47.404;8.502;2023-07-13T09:32:23;22.30;10.80
2010;DHT22;1008;47.404;8.502;2023-07-13T09:34:53;22.20;99.90
2010;DHT22;1008;47.404;8.502;2023-07-13T09:37:22;22.30;42.00
2010;DHT22;1008;47.404;8.502;2023-07-13T09:39:51;22.10;48.00
2010;DHT22;1008;47.404;8.502;2023-07-13T09:42:21;22.20;47.80
2010;DHT22;1008;47.404;8.502;2023-07-13T09:44:53;22.20;66.00
2010;DHT22;1008;47.404;8.502;2023-07-13T09:47:21;22.10;97.50
2010;DHT22;1008;47.404;8.502;2023-07-13T09:49:56;21.80;73.30
2010;DHT22;1008;47.404;8.502;2023-07-13T09:52:24;21.50;99.90
2010;DHT22;1008;47.404;8.502;2023-07-13T09:54:52;21.40;99.90
2010;DHT22;1008;47.404;8.502;2023-07-13T09:57:24;21.50;99.90
2010;DHT22;1008;47.404;8.502;2023-07-13T09:59:53;21.60;99.90
2010;DHT22;1008;47.404;8.502;2023-07-13T10:02:27;21.70;99.90
2010;DHT22;1008;47.404;8.502;2023-07-13T10:05:01;21.70;99.90
2010;DHT22;1008;47.404;8.502;2023-07-13T10:07:29;21.90;99.90
2010;DHT22;1008;47.404;8.502;2023-07-13T10:09:58;21.80;99.90
2010;DHT22;1008;47.404;8.502;2023-07-13T10:12:28;21.80;64.90
2010;DHT22;1008;47.404;8.502;2023-07-13T10:14:57;21.90;59.90
2010;DHT22;1008;47.404;8.502;2023-07-13T10:17:28;22.10;54.10
2010;DHT22;1008;47.404;8.502;2023-07-13T10:19:59;22.30;74.70
2010;DHT22;1008;47.404;8.502;2023-07-13T10:22:33;22.30;7.80
2010;DHT22;1008;47.404;8.502;2023-07-13T10:25:04;22.30;1.00
2010;DHT22;1008;47.404;8.502;2023-07-13T10:27:40;22.20;11.00
2010;DHT22;1008;47.404;8.502;2023-07-13T10:30:12;22.10;1.00
2010;DHT22;1008;47.404;8.502;2023-07-13T10:32:40;22.10;1.00
2010;DHT22;1008;47.404;8.502;2023-07-13T10:35:11;22.20;14.80
2010;DHT22;1008;47.404;8.502;2023-07-13T10:37:43;22.30;56.00
2010;DHT22;1008;47.404;8.502;2023-07-13T10:40:14;22.10;72.90
2010;DHT22;1008;47.404;8.502;2023-07-13T10:42:48;22.40;99.90
2010;DHT22;1008;47.404;8.502;2023-07-13T10:45:19;22.20;10.50
2010;DHT22;1008;47.404;8.502;2023-07-13T10:47:46;22.30;12.70
2010;DHT22;1008;47.404;8.502;2023-07-13T10:50:19;22.60;1.00
2010;DHT22;1008;47.404;8.502;2023-07-13T10:52:48;22.40;22.50
2010;DHT22;1008;47.404;8.502;2023-07-13T10:55:36;22.70;1.00
2010;DHT22;1008;47.404;8.502;2023-07-13T10:58:12;22.90;1.00
2010;DHT22;1008;47.404;8.502;2023-07-13T11:00:46;23.10;1.00
2010;DHT22;1008;47.404;8.502;2023-07-13T11:03:15;23.20;1.00
2010;DHT22;1008;47.404;8.502;2023-07-13T11:05:48;23.40;1.00
2010;DHT22;1008;47.404;8.502;2023-07-13T11:08:20;23.60;1.00
2010;DHT22;1008;47.404;8.502;2023-07-13T11:10:52;24.00;1.00
2010;DHT22;1008;47.404;8.502;2023-07-13T11:13:55;24.20;1.00
2010;DHT22;1008;47.404;8.502;2023-07-13T11:16:39;23.90;1.00
2010;DHT22;1008;47.404;8.502;2023-07-13T11:22:23;23.50;1.00
2010;DHT22;1008;47.404;8.502;2023-07-13T11:24:55;23.50;1.00
2010;DHT22;1008;47.404;8.502;2023-07-13T11:27:34;23.60;1.00
2010;DHT22;1008;47.404;8.502;2023-07-13T11:30:21;23.70;1.00
2010;DHT22;1008;47.404;8.502;2023-07-13T11:32:51;23.70;1.00
2010;DHT22;1008;47.404;8.502;2023-07-13T11:35:23;23.90;1.00
2010;DHT22;1008;47.404;8.502;2023-07-13T11:37:52;23.80;1.00
2010;DHT22;1008;47.404;8.502;2023-07-13T11:40:22;23.50;1.00
2010;DHT22;1008;47.404;8.502;2023-07-13T11:42:51;23.60;1.00
2010;DHT22;1008;47.404;8.502;2023-07-13T11:45:21;23.70;1.00
2010;DHT22;1008;47.404;8.502;2023-07-13T11:47:49;23.80;1.00
2010;DHT22;1008;47.404;8.502;2023-07-13T11:50:20;23.70;1.00
2010;DHT22;1008;47.404;8.502;2023-07-13T11:52:49;24.00;1.00
2010;DHT22;1008;47.404;8.502;2023-07-13T11:55:19;23.70;1.00
2010;DHT22;1008;47.404;8.502;2023-07-13T11:57:50;23.70;1.00
2010;DHT22;1008;47.404;8.502;2023-07-13T12:00:19;24.00;1.00
2010;DHT22;1008;47.404;8.502;2023-07-13T12:02:50;24.00;1.00
2010;DHT22;1008;47.404;8.502;2023-07-13T12:05:18;23.90;1.00
2010;DHT22;1008;47.404;8.502;2023-07-13T12:07:46;24.00;1.00
2010;DHT22;1008;47.404;8.502;2023-07-13T12:10:20;24.10;1.00
2010;DHT22;1008;47.404;8.502;2023-07-13T12:12:50;24.20;1.00
2010;DHT22;1008;47.404;8.502;2023-07-13T12:15:18;24.40;1.00
2010;DHT22;1008;47.404;8.502;2023-07-13T12:17:46;25.00;1.00
2010;DHT22;1008;47.404;8.502;2023-07-13T12:20:20;25.10;1.00
2010;DHT22;1008;47.404;8.502;2023-07-13T12:22:48;24.80;1.00
2010;DHT22;1008;47.404;8.502;2023-07-13T12:25:16;24.60;1.00
2010;DHT22;1008;47.404;8.502;2023-07-13T12:27:48;24.70;1.00
2010;DHT22;1008;47.404;8.502;2023-07-13T12:30:24;24.70;1.00
2010;DHT22;1008;47.404;8.502;2023-07-13T12:33:00;24.70;1.00
2010;DHT22;1008;47.404;8.502;2023-07-13T12:35:29;24.50;1.00
2010;DHT22;1008;47.404;8.502;2023-07-13T12:38:01;24.60;1.00
2010;DHT22;1008;47.404;8.502;2023-07-13T12:40:32;25.00;1.00
2010;DHT22;1008;47.404;8.502;2023-07-13T12:43:01;24.90;1.00
2010;DHT22;1008;47.404;8.502;2023-07-13T12:45:30;24.40;1.00
2010;DHT22;1008;47.404;8.502;2023-07-13T12:47:59;24.20;1.00
2010;DHT22;1008;47.404;8.502;2023-07-13T12:50:34;24.10;1.00
2010;DHT22;1008;47.404;8.502;2023-07-13T12:53:05;24.20;1.00
2010;DHT22;1008;47.404;8.502;2023-07-13T12:55:41;24.20;1.00
2010;DHT22;1008;47.404;8.502;2023-07-13T12:58:17;24.10;1.00
2010;DHT22;1008;47.404;8.502;2023-07-13T13:00:49;23.70;1.00
2010;DHT22;1008;47.404;8.502;2023-07-13T13:03:24;23.50;1.00
2010;DHT22;1008;47.404;8.502;2023-07-13T13:06:03;23.40;1.00
2010;DHT22;1008;47.404;8.502;2023-07-13T13:08:30;23.30;1.00
2010;DHT22;1008;47.404;8.502;2023-07-13T13:10:57;23.30;1.00
2010;DHT22;1008;47.404;8.502;2023-07-13T13:13:25;23.40;1.00
2010;DHT22;1008;47.404;8.502;2023-07-13T13:15:51;23.40;1.00
2010;DHT22;1008;47.404;8.502;2023-07-13T13:18:20;23.20;1.00
2010;DHT22;1008;47.404;8.502;2023-07-13T13:20:48;23.50;1.00
2010;DHT22;1008;47.404;8.502;2023-07-13T13:23:15;23.70;1.00
2010;DHT22;1008;47.404;8.502;2023-07-13T13:25:43;23.60;1.00
2010;DHT22;1008;47.404;8.502;2023-07-13T13:28:13;23.70;1.00
2010;DHT22;1008;47.404;8.502;2023-07-13T13:30:43;24.10;1.00
2010;DHT22;1008;47.404;8.502;2023-07-13T13:33:11;24.10;1.00
2010;DHT22;1008;47.404;8.502;2023-07-13T13:35:39;24.30;1.00
2010;DHT22;1008;47.404;8.502;2023-07-13T13:38:11;24.90;99.90
2010;DHT22;1008;47.404;8.502;2023-07-13T13:40:40;25.10;99.90
2010;DHT22;1008;47.404;8.502;2023-07-13T13:43:14;25.50;99.90
2010;DHT22;1008;47.404;8.502;2023-07-13T13:45:43;25.00;99.90
2010;DHT22;1008;47.404;8.502;2023-07-13T13:48:14;25.40;99.90
2010;DHT22;1008;47.404;8.502;2023-07-13T13:50:41;25.80;99.90
2010;DHT22;1008;47.404;8.502;2023-07-13T13:53:10;25.50;99.90
2010;DHT22;1008;47.404;8.502;2023-07-13T13:55:38;25.00;99.90
2010;DHT22;1008;47.404;8.502;2023-07-13T13:58:07;24.90;99.90
2010;DHT22;1008;47.404;8.502;2023-07-13T14:00:34;24.50;99.90
2010;DHT22;1008;47.404;8.502;2023-07-13T14:03:03;24.70;99.90
2010;DHT22;1008;47.404;8.502;2023-07-13T14:05:29;24.90;99.90
2010;DHT22;1008;47.404;8.502;2023-07-13T14:07:57;25.40;99.90
2010;DHT22;1008;47.404;8.502;2023-07-13T14:10:25;25.40;99.90
2010;DHT22;1008;47.404;8.502;2023-07-13T14:12:54;25.20;99.90
2010;DHT22;1008;47.404;8.502;2023-07-13T14:15:24;24.80;99.90
2010;DHT22;1008;47.404;8.502;2023-07-13T14:17:52;24.60;99.90
2010;DHT22;1008;47.404;8.502;2023-07-13T14:20:22;24.60;99.90
2010;DHT22;1008;47.404;8.502;2023-07-13T14:22:50;24.70;99.90
2010;DHT22;1008;47.404;8.502;2023-07-13T14:25:18;24.70;99.90
2010;DHT22;1008;47.404;8.502;2023-07-13T14:27:48;24.80;99.90
2010;DHT22;1008;47.404;8.502;2023-07-13T14:30:18;24.90;99.90
2010;DHT22;1008;47.404;8.502;2023-07-13T14:32:45;24.70;99.90
2010;DHT22;1008;47.404;8.502;2023-07-13T14:35:13;24.30;99.90
2010;DHT22;1008;47.404;8.502;2023-07-13T14:37:43;24.20;99.90
2010;DHT22;1008;47.404;8.502;2023-07-13T14:40:13;24.20;99.90
2010;DHT22;1008;47.404;8.502;2023-07-13T14:42:40;24.20;99.90
2010;DHT22;1008;47.404;8.502;2023-07-13T14:45:13;24.20;99.90
2010;DHT22;1008;47.404;8.502;2023-07-13T14:47:40;24.30;99.90
2010;DHT22;1008;47.404;8.502;2023-07-13T14:50:14;24.40;99.90
2010;DHT22;1008;47.404;8.502;2023-07-13T14:52:42;24.90;99.90
2010;DHT22;1008;47.404;8.502;2023-07-13T14:55:11;25.40;99.90
2010;DHT22;1008;47.404;8.502;2023-07-13T14:57:38;25.40;99.90
2010;DHT22;1008;47.404;8.502;2023-07-13T15:00:13;25.70;99.90
2010;DHT22;1008;47.404;8.502;2023-07-13T15:02:44;25.60;99.90
2010;DHT22;1008;47.404;8.502;2023-07-13T15:05:16;25.90;99.90
2010;DHT22;1008;47.404;8.502;2023-07-13T15:07:45;25.90;99.90
2010;DHT22;1008;47.404;8.502;2023-07-13T15:10:14;25.60;99.90
2010;DHT22;1008;47.404;8.502;2023-07-13T15:12:41;25.60;99.90
2010;DHT22;1008;47.404;8.502;2023-07-13T15:15:08;25.50;99.90
2010;DHT22;1008;47.404;8.502;2023-07-13T15:17:36;25.50;99.90
2010;DHT22;1008;47.404;8.502;2023-07-13T15:20:11;25.40;99.90
2010;DHT22;1008;47.404;8.502;2023-07-13T15:22:39;25.60;99.90
2010;DHT22;1008;47.404;8.502;2023-07-13T15:25:13;25.60;99.90
2010;DHT22;1008;47.404;8.502;2023-07-13T15:27:41;25.40;99.90
2010;DHT22;1008;47.404;8.502;2023-07-13T15:30:09;25.20;99.90
2010;DHT22;1008;47.404;8.502;2023-07-13T15:32:36;25.20;99.90
2010;DHT22;1008;47.404;8.502;2023-07-13T15:35:03;25.30;99.90
2010;DHT22;1008;47.404;8.502;2023-07-13T15:37:30;25.30;99.90
2010;DHT22;1008;47.404;8.502;2023-07-13T15:39:56;25.30;99.90
2010;DHT22;1008;47.404;8.502;2023-07-13T15:42:24;25.10;99.90
2010;DHT22;1008;47.404;8.502;2023-07-13T15:44:51;25.20;99.90
2010;DHT22;1008;47.404;8.502;2023-07-13T15:47:18;25.30;99.90
2010;DHT22;1008;47.404;8.502;2023-07-13T15:49:45;25.40;99.90
2010;DHT22;1008;47.404;8.502;2023-07-13T15:52:17;25.40;99.90
2010;DHT22;1008;47.404;8.502;2023-07-13T15:54:45;25.60;99.90
2010;DHT22;1008;47.404;8.502;2023-07-13T15:57:12;25.40;99.90
2010;DHT22;1008;47.404;8.502;2023-07-13T15:59:41;25.50;99.90
2010;DHT22;1008;47.404;8.502;2023-07-13T16:02:13;25.50;99.90
2010;DHT22;1008;47.404;8.502;2023-07-13T16:04:41;25.40;99.90
2010;DHT22;1008;47.404;8.502;2023-07-13T16:07:09;25.40;99.90
2010;DHT22;1008;47.404;8.502;2023-07-13T16:09:37;25.80;99.90
2010;DHT22;1008;47.404;8.502;2023-07-13T16:12:09;25.70;99.90
2010;DHT22;1008;47.404;8.502;2023-07-13T16:14:37;25.80;99.90
2010;DHT22;1008;47.404;8.502;2023-07-13T16:17:08;25.80;99.90
2010;DHT22;1008;47.404;8.502;2023-07-13T16:19:35;25.60;99.90
2010;DHT22;1008;47.404;8.502;2023-07-13T16:22:03;25.70;99.90